Time;durP1;ratioP1;P1;durP2;ratioP2;P2;SDS_P1;SDS_P2;PMS_P1;PMS_P2;Temp;Humidity;BMP_temperature;BMP_pressure;BME280_temperature;BME280_humidity;BME280_pressure;Samples;Min_cycle;Max_cycle;Signal;HPM_P1;HPM_P2
2022/10/10 00:00:37;;;;;;;0.98;0.80;;;22.20;57.80;;;;;;5000232;28;20496;-67
2022/10/10 00:03:04;;;;;;;1.50;0.80;;;22.20;57.80;;;;;;4996998;28;20489;-68
2022/10/10 00:05:29;;;;;;;1.17;0.75;;;22.20;57.80;;;;;;4990527;28;20031;-68
2022/10/10 00:07:55;;;;;;;1.45;0.90;;;22.20;57.80;;;;;;4986118;28;20093;-67
2022/10/10 00:10:21;;;;;;;0.93;0.63;;;22.10;57.70;;;;;;5002206;28;20429;-67
2022/10/10 00:12:47;;;;;;;1.60;0.80;;;22.20;57.80;;;;;;4998985;28;20354;-67
2022/10/10 00:15:14;;;;;;;1.10;0.68;;;22.20;57.80;;;;;;5002093;28;20054;-67
2022/10/10 00:17:42;;;;;;;1.08;0.80;;;22.10;57.70;;;;;;4999341;28;20109;-67
2022/10/10 00:20:09;;;;;;;1.30;0.88;;;22.10;57.80;;;;;;4999427;28;20030;-67
2022/10/10 00:22:35;;;;;;;1.27;0.70;;;22.10;57.70;;;;;;5001126;28;20132;-67
2022/10/10 00:25:01;;;;;;;1.00;0.75;;;22.10;57.70;;;;;;4990840;28;20113;-67
2022/10/10 00:27:26;;;;;;;1.15;0.70;;;22.10;57.70;;;;;;5000019;28;20053;-67
2022/10/10 00:29:52;;;;;;;1.65;0.73;;;22.10;57.80;;;;;;4999024;28;20429;-67
2022/10/10 00:32:17;;;;;;;1.45;0.70;;;22.10;57.70;;;;;;4996159;28;20076;-68
2022/10/10 00:34:43;;;;;;;1.65;0.90;;;22.10;58.30;;;;;;5000980;28;20038;-67
2022/10/10 00:37:09;;;;;;;1.17;0.70;;;22.10;57.80;;;;;;4998998;28;20413;-66
2022/10/10 00:39:34;;;;;;;1.20;0.70;;;22.10;57.80;;;;;;4993412;28;20080;-67
2022/10/10 00:42:00;;;;;;;0.73;0.70;;;22.10;58.30;;;;;;4993822;28;20109;-67
2022/10/10 00:44:27;;;;;;;1.25;0.85;;;22.10;57.80;;;;;;4994469;28;20382;-67
2022/10/10 00:46:52;;;;;;;1.25;0.70;;;22.10;57.80;;;;;;4999624;28;20533;-67
2022/10/10 00:49:25;;;;;;;1.35;0.80;;;22.00;57.70;;;;;;4996881;28;20112;-67
2022/10/10 00:51:54;;;;;;;0.82;0.60;;;22.10;57.80;;;;;;4995677;28;20097;-67
2022/10/10 00:54:22;;;;;;;1.27;0.80;;;22.00;57.80;;;;;;5001977;28;20086;-67
2022/10/10 00:56:54;;;;;;;1.67;0.80;;;22.10;57.80;;;;;;4999149;28;20035;-67
2022/10/10 00:59:20;;;;;;;0.65;0.55;;;22.10;57.80;;;;;;4998698;28;20490;-67
2022/10/10 01:01:46;;;;;;;1.00;0.70;;;22.00;57.80;;;;;;5000686;28;20026;-68
2022/10/10 01:04:29;;;;;;;1.98;0.77;;;22.00;57.80;;;;;;4997556;28;20093;-67
2022/10/10 01:06:55;;;;;;;2.17;1.15;;;22.00;57.80;;;;;;5002157;28;20433;-67
2022/10/10 01:09:21;;;;;;;1.55;0.90;;;22.00;57.80;;;;;;4999806;28;20477;-67
2022/10/10 01:12:21;;;;;;;1.88;0.90;;;22.00;57.80;;;;;;4998732;28;20069;-67
2022/10/10 01:15:16;;;;;;;0.75;0.55;;;22.00;57.80;;;;;;4968960;28;20482;-67
2022/10/10 01:18:40;;;;;;;1.00;0.70;;;22.00;57.80;;;;;;4964131;28;20073;-67
2022/10/10 01:21:13;;;;;;;1.17;0.70;;;22.00;57.80;;;;;;4986254;28;20866;-67
2022/10/10 01:24:01;;;;;;;0.95;0.68;;;22.00;57.80;;;;;;4994028;28;20121;-67
2022/10/10 01:26:35;;;;;;;1.00;0.60;;;22.00;58.10;;;;;;4998864;28;20037;-67
2022/10/10 01:29:14;;;;;;;1.98;0.95;;;22.00;57.80;;;;;;4998644;28;20030;-67
2022/10/10 01:31:45;;;;;;;1.95;1.10;;;22.00;57.80;;;;;;4998423;28;20034;-68
2022/10/10 01:34:37;;;;;;;1.23;0.70;;;22.00;57.80;;;;;;4981446;28;20114;-68
2022/10/10 01:37:19;;;;;;;0.93;0.70;;;22.00;57.80;;;;;;4985253;28;20040;-68
2022/10/10 01:40:13;;;;;;;1.60;0.70;;;22.00;57.80;;;;;;4998759;28;20481;-68
2022/10/10 01:42:53;;;;;;;0.95;0.70;;;21.90;57.80;;;;;;4995529;28;20030;-68
2022/10/10 01:45:19;;;;;;;1.52;0.80;;;21.90;58.30;;;;;;4993572;28;20142;-68
2022/10/10 01:47:46;;;;;;;0.75;0.70;;;21.90;58.30;;;;;;4999181;28;20531;-68
2022/10/10 01:50:15;;;;;;;1.38;0.82;;;21.90;57.80;;;;;;4995687;28;20042;-68
2022/10/10 01:53:19;;;;;;;1.10;0.70;;;21.90;57.80;;;;;;5001349;28;20080;-67
2022/10/10 01:56:13;;;;;;;1.15;0.70;;;21.90;57.80;;;;;;4998768;28;20021;-68
2022/10/10 01:59:06;;;;;;;1.42;1.05;;;21.90;57.80;;;;;;4996094;28;20484;-68
2022/10/10 02:01:48;;;;;;;0.93;0.70;;;21.90;57.90;;;;;;4996081;28;20026;-68
2022/10/10 02:04:35;;;;;;;1.13;0.73;;;21.90;57.90;;;;;;5000557;28;20053;-68
2022/10/10 02:07:24;;;;;;;1.60;0.80;;;21.90;57.80;;;;;;4996115;28;20397;-68
2022/10/10 02:09:52;;;;;;;1.55;1.02;;;21.90;57.80;;;;;;4991577;28;20092;-67
2022/10/10 02:12:19;;;;;;;1.00;0.70;;;21.90;57.80;;;;;;4983707;28;20342;-68
2022/10/10 02:14:51;;;;;;;1.60;0.80;;;21.90;57.90;;;;;;4999125;28;20525;-68
2022/10/10 02:17:17;;;;;;;1.88;0.80;;;21.90;57.90;;;;;;4998295;28;20032;-68
2022/10/10 02:19:56;;;;;;;1.65;0.82;;;21.90;57.80;;;;;;4986775;28;20494;-69
2022/10/10 02:22:23;;;;;;;1.02;0.70;;;21.90;57.90;;;;;;4996124;28;20113;-68
2022/10/10 02:24:51;;;;;;;1.10;0.68;;;21.80;57.80;;;;;;4996319;28;20486;-67
2022/10/10 02:27:33;;;;;;;1.25;0.65;;;21.90;57.80;;;;;;4993574;28;20034;-68
2022/10/10 02:30:01;;;;;;;1.55;0.80;;;21.80;57.80;;;;;;4992300;28;20042;-68
2022/10/10 02:32:45;;;;;;;1.42;0.80;;;21.90;57.80;;;;;;4997616;28;20037;-67
2022/10/10 02:35:23;;;;;;;1.00;0.70;;;21.90;57.80;;;;;;4973452;28;20038;-68
2022/10/10 02:37:51;;;;;;;1.20;0.70;;;21.90;57.80;;;;;;4997754;28;20359;-68
2022/10/10 02:40:22;;;;;;;1.10;0.70;;;21.90;57.80;;;;;;4996333;28;20117;-68
2022/10/10 02:42:51;;;;;;;1.05;0.80;;;21.90;57.80;;;;;;4998249;28;20526;-68
2022/10/10 02:45:18;;;;;;;2.28;0.77;;;21.80;57.80;;;;;;4995993;28;20113;-68
2022/10/10 02:47:44;;;;;;;0.88;0.70;;;21.80;57.80;;;;;;4996380;28;20068;-68
2022/10/10 02:50:10;;;;;;;0.73;0.68;;;21.80;57.80;;;;;;4997799;28;20056;-68
2022/10/10 02:52:37;;;;;;;1.00;0.77;;;21.80;57.80;;;;;;4998340;28;20026;-68
2022/10/10 02:55:02;;;;;;;1.20;0.73;;;21.80;57.80;;;;;;4980134;28;20034;-68
2022/10/10 02:57:28;;;;;;;1.13;0.80;;;21.80;57.80;;;;;;4996818;28;20101;-67
2022/10/10 02:59:54;;;;;;;1.83;0.70;;;21.80;57.80;;;;;;4997012;28;20033;-68
2022/10/10 03:02:19;;;;;;;1.50;0.80;;;21.80;57.80;;;;;;4976337;28;20088;-68
2022/10/10 03:04:45;;;;;;;0.93;0.73;;;21.80;57.80;;;;;;4992484;28;20401;-68
2022/10/10 03:07:11;;;;;;;1.17;0.80;;;21.80;57.80;;;;;;4978492;28;20042;-68
2022/10/10 03:09:37;;;;;;;1.25;0.80;;;21.80;57.80;;;;;;4986937;28;20029;-68
2022/10/10 03:12:03;;;;;;;1.20;0.80;;;21.80;57.80;;;;;;4992186;28;20335;-68
2022/10/10 03:14:29;;;;;;;1.42;0.70;;;21.80;57.80;;;;;;4987339;28;20126;-68
2022/10/10 03:16:55;;;;;;;1.52;0.90;;;21.80;57.80;;;;;;4996676;28;20101;-67
2022/10/10 03:19:21;;;;;;;1.38;0.80;;;21.70;57.70;;;;;;4994095;28;20026;-68
2022/10/10 03:21:47;;;;;;;2.05;1.05;;;21.80;57.80;;;;;;4978284;28;20058;-68
2022/10/10 03:24:12;;;;;;;1.00;0.80;;;21.80;57.80;;;;;;4983074;28;20027;-67
2022/10/10 03:26:38;;;;;;;1.52;0.90;;;21.80;57.80;;;;;;4982027;28;20470;-67
2022/10/10 03:29:04;;;;;;;1.27;0.80;;;21.70;57.80;;;;;;4999630;28;20037;-67
2022/10/10 03:31:30;;;;;;;1.20;0.80;;;21.70;57.70;;;;;;5002266;28;20034;-67
2022/10/10 03:33:55;;;;;;;0.93;0.73;;;21.70;57.70;;;;;;5003912;28;20064;-67
2022/10/10 03:36:22;;;;;;;1.20;0.70;;;21.70;57.70;;;;;;4981284;28;20018;-67
2022/10/10 03:38:47;;;;;;;1.13;0.65;;;21.70;57.80;;;;;;5000104;28;20543;-67
2022/10/10 03:41:13;;;;;;;1.42;0.70;;;21.70;57.80;;;;;;4997566;28;20030;-68
2022/10/10 03:43:39;;;;;;;0.93;0.70;;;21.70;57.70;;;;;;5000775;28;20412;-66
2022/10/10 03:46:05;;;;;;;1.05;0.70;;;21.70;57.80;;;;;;4983207;28;20068;-68
2022/10/10 03:48:30;;;;;;;2.63;0.90;;;21.70;57.80;;;;;;4999104;28;20385;-67
2022/10/10 03:50:56;;;;;;;1.27;0.80;;;21.70;57.80;;;;;;4998196;28;20064;-67
2022/10/10 03:53:21;;;;;;;1.08;0.70;;;21.70;57.80;;;;;;4998285;28;20126;-68
2022/10/10 03:55:47;;;;;;;1.50;0.80;;;21.70;57.80;;;;;;4990311;28;20035;-67
2022/10/10 03:58:13;;;;;;;1.00;0.70;;;21.70;57.80;;;;;;4995882;28;20061;-67
2022/10/10 04:00:38;;;;;;;1.13;0.70;;;21.70;57.80;;;;;;4998213;28;20038;-67
2022/10/10 04:03:05;;;;;;;0.90;0.65;;;21.70;57.80;;;;;;4997728;28;20423;-67
2022/10/10 04:05:36;;;;;;;0.85;0.60;;;21.70;57.80;;;;;;4991500;28;20033;-67
2022/10/10 04:08:02;;;;;;;1.05;0.60;;;21.70;57.80;;;;;;4992466;28;20133;-68
2022/10/10 04:10:27;;;;;;;1.13;0.60;;;21.70;57.80;;;;;;5000505;28;20049;-67
2022/10/10 04:12:53;;;;;;;1.05;0.65;;;21.70;57.80;;;;;;5000567;28;20030;-67
2022/10/10 04:15:19;;;;;;;1.25;1.00;;;21.70;57.80;;;;;;4999288;28;20332;-66
2022/10/10 04:17:44;;;;;;;1.35;0.70;;;21.70;57.80;;;;;;4990516;28;20117;-67
2022/10/10 04:20:10;;;;;;;1.08;0.60;;;21.70;57.80;;;;;;5000103;28;20034;-68
2022/10/10 04:22:35;;;;;;;0.82;0.60;;;21.70;57.80;;;;;;4994052;28;20129;-68
2022/10/10 04:25:01;;;;;;;1.35;0.77;;;21.70;57.80;;;;;;5000657;28;20040;-67
2022/10/10 04:27:27;;;;;;;2.42;0.70;;;21.60;57.80;;;;;;4990784;28;20042;-68
2022/10/10 04:29:52;;;;;;;0.77;0.60;;;21.60;57.80;;;;;;4978966;28;20030;-68
2022/10/10 04:32:18;;;;;;;1.25;0.80;;;21.60;57.80;;;;;;4991040;28;20030;-68
2022/10/10 04:34:43;;;;;;;1.58;0.80;;;21.60;57.80;;;;;;4989935;28;20100;-68
2022/10/10 04:37:09;;;;;;;1.15;0.60;;;21.60;57.80;;;;;;5000611;28;20065;-68
2022/10/10 04:39:34;;;;;;;1.08;0.75;;;21.60;57.90;;;;;;4997582;28;20453;-68
2022/10/10 04:42:00;;;;;;;1.75;1.00;;;21.60;57.90;;;;;;4991388;28;20030;-68
2022/10/10 04:44:26;;;;;;;0.98;0.70;;;21.60;57.90;;;;;;4994465;28;20026;-68
2022/10/10 04:46:56;;;;;;;1.23;0.73;;;21.60;57.90;;;;;;5000016;28;20034;-67
2022/10/10 04:49:22;;;;;;;0.75;0.57;;;21.60;57.90;;;;;;4999360;28;20029;-68
2022/10/10 04:51:48;;;;;;;0.98;0.60;;;21.70;58.00;;;;;;5001381;28;20505;-68
2022/10/10 04:54:14;;;;;;;0.73;0.60;;;21.60;57.90;;;;;;5000889;28;20057;-68
2022/10/10 04:56:42;;;;;;;1.23;0.80;;;21.60;57.90;;;;;;4999659;28;20478;-68
2022/10/10 04:59:09;;;;;;;0.97;0.60;;;21.60;57.90;;;;;;4999879;28;20457;-68
2022/10/10 05:01:35;;;;;;;1.02;0.60;;;21.60;57.90;;;;;;5000810;28;20266;-68
2022/10/10 05:04:00;;;;;;;1.15;0.80;;;21.60;57.90;;;;;;4997531;28;20038;-68
2022/10/10 05:06:26;;;;;;;1.20;0.70;;;21.60;57.90;;;;;;4976694;28;20030;-68
2022/10/10 05:08:52;;;;;;;1.27;0.70;;;21.60;58.40;;;;;;4994263;28;20050;-68
2022/10/10 05:11:17;;;;;;;1.10;0.80;;;21.60;57.90;;;;;;4986499;28;20023;-67
2022/10/10 05:13:43;;;;;;;1.23;0.63;;;21.60;57.90;;;;;;4999980;28;20033;-67
2022/10/10 05:16:09;;;;;;;1.08;0.70;;;21.60;58.10;;;;;;4986772;28;20037;-66
2022/10/10 05:18:38;;;;;;;1.65;0.80;;;21.60;58.10;;;;;;4997143;28;20041;-68
2022/10/10 05:21:05;;;;;;;1.00;0.63;;;21.60;58.30;;;;;;5000120;28;20034;-65
2022/10/10 05:23:31;;;;;;;0.70;0.60;;;21.60;58.40;;;;;;4995168;28;20444;-66
2022/10/10 05:25:56;;;;;;;1.05;0.75;;;21.70;58.50;;;;;;4995148;28;20122;-69
2022/10/10 05:28:22;;;;;;;1.35;0.80;;;21.70;58.40;;;;;;4998880;28;20374;-67
2022/10/10 05:30:50;;;;;;;1.20;0.75;;;21.70;58.30;;;;;;5006886;28;20398;-68
2022/10/10 05:33:15;;;;;;;2.03;0.90;;;21.70;58.10;;;;;;4994244;28;20048;-68
2022/10/10 05:35:41;;;;;;;1.17;0.70;;;21.80;58.10;;;;;;5002016;28;20033;-67
2022/10/10 05:38:07;;;;;;;1.60;0.70;;;21.80;58.00;;;;;;5002413;28;20358;-68
2022/10/10 05:40:32;;;;;;;1.90;0.90;;;21.80;58.00;;;;;;5004897;28;20032;-67
2022/10/10 05:42:58;;;;;;;1.52;0.70;;;21.90;58.00;;;;;;5004058;28;20478;-67
2022/10/10 05:45:23;;;;;;;1.33;0.70;;;21.90;57.90;;;;;;5005344;28;20065;-68
2022/10/10 05:47:49;;;;;;;1.83;0.88;;;21.90;57.80;;;;;;4989207;28;20374;-65
2022/10/10 05:50:37;;;;;;;1.52;0.80;;;21.90;57.70;;;;;;5005079;28;20018;-67
2022/10/10 05:53:03;;;;;;;1.38;0.80;;;22.00;57.60;;;;;;5001661;28;20022;-69
2022/10/10 05:55:29;;;;;;;1.58;0.80;;;22.00;57.60;;;;;;4997301;28;20026;-66
2022/10/10 05:57:55;;;;;;;1.60;0.80;;;22.10;57.60;;;;;;4998742;28;20029;-67
2022/10/10 06:00:20;;;;;;;1.42;0.85;;;22.10;57.70;;;;;;4994462;28;20026;-69
2022/10/10 06:02:46;;;;;;;1.15;0.75;;;22.10;57.70;;;;;;4988212;28;20027;-67
2022/10/10 06:05:12;;;;;;;2.83;0.77;;;22.10;57.70;;;;;;4992601;28;20046;-68
2022/10/10 06:07:37;;;;;;;1.10;0.80;;;22.10;57.80;;;;;;4986114;28;20030;-66
2022/10/10 06:10:04;;;;;;;1.63;0.80;;;22.20;57.60;;;;;;4999847;28;20038;-69
2022/10/10 06:12:30;;;;;;;0.85;0.63;;;22.20;57.70;;;;;;4988479;28;20148;-66
2022/10/10 06:14:55;;;;;;;1.27;0.77;;;22.20;57.80;;;;;;4980683;28;20137;-70
2022/10/10 06:17:21;;;;;;;1.40;0.90;;;22.20;57.70;;;;;;4994805;28;20018;-70
2022/10/10 06:19:46;;;;;;;2.10;0.88;;;22.20;57.60;;;;;;4996116;28;20034;-66
2022/10/10 06:22:12;;;;;;;0.82;0.60;;;22.30;57.40;;;;;;4995234;28;20246;-68
2022/10/10 06:24:38;;;;;;;1.80;0.80;;;22.30;57.70;;;;;;4997640;28;20073;-70
2022/10/10 06:27:03;;;;;;;1.80;0.80;;;22.30;57.50;;;;;;5001190;28;20513;-66
2022/10/10 06:29:29;;;;;;;2.63;0.90;;;22.40;57.60;;;;;;4998243;28;20476;-67
2022/10/10 06:31:54;;;;;;;2.33;0.80;;;22.40;57.50;;;;;;4999594;28;20054;-71
2022/10/10 06:34:20;;;;;;;1.30;0.77;;;22.40;57.40;;;;;;4994321;28;20419;-68
2022/10/10 06:36:49;;;;;;;1.85;0.80;;;22.40;57.30;;;;;;4996052;28;20434;-69
2022/10/10 06:39:15;;;;;;;4.80;1.45;;;22.50;57.30;;;;;;4995016;28;20105;-70
2022/10/10 06:41:40;;;;;;;1.35;0.75;;;22.50;57.40;;;;;;4978105;28;20129;-69
2022/10/10 06:44:06;;;;;;;1.77;0.70;;;22.50;57.30;;;;;;4993915;28;20018;-69
2022/10/10 06:46:36;;;;;;;1.33;0.70;;;22.50;57.20;;;;;;4997071;28;20088;-70
2022/10/10 06:49:02;;;;;;;;;;;22.60;57.10;;;;;;4996217;28;20056;-69
2022/10/10 06:51:27;;;;;;;1.85;0.88;;;22.60;57.00;;;;;;5000839;28;19909;-68
2022/10/10 06:53:55;;;;;;;1.42;0.80;;;22.60;56.90;;;;;;4998055;28;20030;-68
2022/10/10 06:56:21;;;;;;;1.65;0.80;;;22.60;56.80;;;;;;4999686;28;20033;-68
2022/10/10 06:58:50;;;;;;;1.10;0.70;;;22.70;56.80;;;;;;4998950;28;20038;-68
2022/10/10 07:01:20;;;;;;;2.90;0.90;;;22.70;57.10;;;;;;4992333;28;20362;-68
2022/10/10 07:03:46;;;;;;;2.72;0.80;;;22.70;56.70;;;;;;4997479;28;20027;-71
2022/10/10 07:06:12;;;;;;;2.30;0.90;;;22.70;56.60;;;;;;4986148;28;20525;-69
2022/10/10 07:08:39;;;;;;;1.80;0.80;;;22.70;56.50;;;;;;5001087;28;20426;-69
2022/10/10 07:11:06;;;;;;;1.02;0.70;;;22.70;56.50;;;;;;5000923;28;20018;-68
2022/10/10 07:13:32;;;;;;;1.30;0.90;;;22.80;56.50;;;;;;5003320;28;20018;-69
2022/10/10 07:15:58;;;;;;;2.05;0.82;;;22.80;56.40;;;;;;4988687;28;20026;-69
2022/10/10 07:18:24;;;;;;;2.42;0.80;;;22.80;56.40;;;;;;5002921;28;20494;-67
2022/10/10 07:20:53;;;;;;;1.58;0.82;;;22.80;56.40;;;;;;5003555;28;20041;-67
2022/10/10 07:23:19;;;;;;;1.15;0.73;;;22.80;56.30;;;;;;5001469;28;20473;-68
2022/10/10 07:25:45;;;;;;;2.03;0.95;;;22.90;56.30;;;;;;4983489;28;20118;-68
2022/10/10 07:28:11;;;;;;;1.35;0.80;;;22.90;56.30;;;;;;5007264;28;20026;-68
2022/10/10 07:30:42;;;;;;;1.63;0.90;;;22.90;56.30;;;;;;4991916;28;20137;-68
2022/10/10 07:33:08;;;;;;;1.38;0.80;;;22.90;56.20;;;;;;4997620;28;20053;-68
2022/10/10 07:35:34;;;;;;;1.48;0.80;;;22.90;56.20;;;;;;5003785;28;20061;-68
2022/10/10 07:38:00;;;;;;;1.15;0.75;;;23.00;56.20;;;;;;4984343;28;20434;-69
2022/10/10 07:40:25;;;;;;;1.75;0.90;;;23.00;56.10;;;;;;4994748;28;20033;-67
2022/10/10 07:42:51;;;;;;;1.25;0.80;;;23.00;56.10;;;;;;4998664;28;20370;-68
2022/10/10 07:45:17;;;;;;;1.40;0.88;;;23.00;56.10;;;;;;4997543;28;20046;-66
2022/10/10 07:47:42;;;;;;;1.13;0.70;;;23.00;56.30;;;;;;4995915;28;20509;-65
2022/10/10 07:50:10;;;;;;;1.52;0.70;;;23.00;56.60;;;;;;4999333;28;20366;-66
2022/10/10 07:52:37;;;;;;;1.83;0.80;;;23.00;56.50;;;;;;5000884;28;20021;-67
2022/10/10 07:55:03;;;;;;;1.45;0.75;;;23.00;56.40;;;;;;4997312;28;20068;-68
2022/10/10 07:57:33;;;;;;;2.03;0.82;;;23.10;56.30;;;;;;4968831;28;20027;-67
2022/10/10 08:00:00;;;;;;;1.65;0.85;;;23.00;56.10;;;;;;5002630;28;20029;-67
2022/10/10 08:02:26;;;;;;;1.33;0.75;;;23.00;56.20;;;;;;4989133;28;20520;-67
2022/10/10 08:04:51;;;;;;;1.30;0.70;;;23.10;56.20;;;;;;4999553;28;20033;-71
2022/10/10 08:07:18;;;;;;;1.50;0.73;;;23.10;56.10;;;;;;5001300;28;20550;-70
2022/10/10 08:09:44;;;;;;;1.50;0.80;;;23.10;56.00;;;;;;5001252;28;20050;-66
2022/10/10 08:12:09;;;;;;;2.45;0.93;;;23.10;56.40;;;;;;5000855;28;20088;-66
2022/10/10 08:14:35;;;;;;;2.25;0.93;;;23.10;56.60;;;;;;5000223;28;20058;-71
2022/10/10 08:17:01;;;;;;;3.75;0.80;;;23.20;56.00;;;;;;4998696;28;20477;-66
2022/10/10 08:19:26;;;;;;;2.17;0.82;;;23.20;56.00;;;;;;4999666;28;20105;-66
2022/10/10 08:21:52;;;;;;;1.38;0.90;;;23.20;56.00;;;;;;4995050;28;20098;-67
2022/10/10 08:24:18;;;;;;;1.48;0.80;;;23.20;56.10;;;;;;4995555;28;20031;-66
2022/10/10 08:26:43;;;;;;;2.45;0.70;;;23.20;56.00;;;;;;4985797;28;20037;-67
2022/10/10 08:29:09;;;;;;;1.35;0.70;;;23.20;56.10;;;;;;5000957;28;20033;-70
2022/10/10 08:31:34;;;;;;;1.92;0.75;;;23.20;56.10;;;;;;4993090;28;20494;-67
2022/10/10 08:34:00;;;;;;;1.05;0.70;;;23.20;56.10;;;;;;4991889;28;20027;-67
2022/10/10 08:36:26;;;;;;;1.65;0.68;;;23.20;56.10;;;;;;4990805;28;20466;-67
2022/10/10 08:38:56;;;;;;;1.52;0.80;;;23.20;56.10;;;;;;4984250;28;20030;-67
2022/10/10 08:41:46;;;;;;;1.15;0.70;;;23.20;56.10;;;;;;5000030;28;20034;-66
2022/10/10 08:44:22;;;;;;;1.45;0.73;;;23.20;56.20;;;;;;5000740;28;20030;-67
2022/10/10 08:46:56;;;;;;;2.33;0.80;;;23.30;56.30;;;;;;5002763;28;20026;-67
2022/10/10 08:49:57;;;;;;;2.15;0.80;;;23.30;56.20;;;;;;5000486;28;20338;-66
2022/10/10 08:52:29;;;;;;;1.85;0.90;;;23.30;56.10;;;;;;5001757;28;20034;-70
2022/10/10 08:54:56;;;;;;;1.30;0.70;;;23.40;55.90;;;;;;5000439;28;20025;-70
2022/10/10 08:57:28;;;;;;;1.10;0.73;;;23.40;55.80;;;;;;4993500;28;20029;-70
2022/10/10 08:59:59;;;;;;;1.45;0.77;;;23.40;55.70;;;;;;4978207;28;20051;-70
2022/10/10 09:02:37;;;;;;;1.58;0.90;;;23.40;55.70;;;;;;4974029;28;20042;-68
2022/10/10 09:05:04;;;;;;;1.45;0.80;;;23.40;55.70;;;;;;4996962;28;20036;-70
2022/10/10 09:07:59;;;;;;;1.50;0.80;;;23.40;55.60;;;;;;4995169;28;20030;-66
2022/10/10 09:10:35;;;;;;;1.80;0.90;;;23.40;55.60;;;;;;4991426;28;20398;-68
2022/10/10 09:13:09;;;;;;;1.63;0.68;;;23.40;55.50;;;;;;4985188;28;20029;-68
2022/10/10 09:15:52;;;;;;;1.33;0.70;;;23.40;55.50;;;;;;4994380;28;20498;-67
2022/10/10 09:18:51;;;;;;;1.30;0.90;;;23.50;55.60;;;;;;4998423;28;20357;-68
2022/10/10 09:21:37;;;;;;;1.15;0.70;;;23.50;55.50;;;;;;4995658;28;20386;-67
2022/10/10 09:24:16;;;;;;;2.20;0.90;;;23.40;55.40;;;;;;4995567;28;20026;-68
2022/10/10 09:27:02;;;;;;;1.65;0.90;;;23.50;55.50;;;;;;4994713;28;20041;-67
2022/10/10 09:30:08;;;;;;;0.95;0.73;;;23.50;55.40;;;;;;4996072;28;20038;-66
2022/10/10 09:32:57;;;;;;;2.30;0.70;;;23.50;55.40;;;;;;4923201;28;20074;-67
2022/10/10 09:35:34;;;;;;;3.05;1.00;;;23.50;55.40;;;;;;4996628;28;20468;-66
2022/10/10 09:38:26;;;;;;;2.25;0.90;;;23.50;55.40;;;;;;4996678;28;20035;-67
2022/10/10 09:41:01;;;;;;;1.13;0.70;;;23.50;55.50;;;;;;4981653;28;20030;-67
2022/10/10 09:43:31;;;;;;;1.70;1.00;;;23.50;55.50;;;;;;4999431;28;20105;-66
2022/10/10 09:45:57;;;;;;;2.03;0.90;;;23.50;55.40;;;;;;4997288;28;20026;-68
2022/10/10 09:48:33;;;;;;;2.25;0.80;;;23.50;55.40;;;;;;4998856;28;20026;-67
2022/10/10 09:51:01;;;;;;;2.22;0.93;;;23.50;55.40;;;;;;4994514;28;20050;-66
2022/10/10 09:53:27;;;;;;;2.50;0.90;;;23.50;55.30;;;;;;4971658;28;20465;-67
2022/10/10 09:55:53;;;;;;;1.20;0.73;;;23.50;55.90;;;;;;4993442;28;20097;-68
2022/10/10 09:58:40;;;;;;;1.70;0.90;;;23.50;55.40;;;;;;4998225;28;20023;-69
2022/10/10 10:01:20;;;;;;;1.45;0.90;;;23.60;55.30;;;;;;4991927;28;20066;-67
2022/10/10 10:04:08;;;;;;;2.03;0.80;;;23.60;55.30;;;;;;4989381;28;20132;-65
2022/10/10 10:06:34;;;;;;;1.00;0.80;;;23.60;55.30;;;;;;4990829;28;20057;-71
2022/10/10 10:09:02;;;;;;;1.23;0.70;;;23.60;55.30;;;;;;5000822;28;20053;-68
2022/10/10 10:11:34;;;;;;;1.73;0.80;;;23.60;55.30;;;;;;4996471;28;20397;-68
2022/10/10 10:14:04;;;;;;;1.00;0.80;;;23.60;55.40;;;;;;4996967;28;20673;-68
2022/10/10 10:16:35;;;;;;;1.55;0.70;;;23.60;55.30;;;;;;4981727;28;20137;-67
2022/10/10 10:19:01;;;;;;;1.30;0.70;;;23.70;55.40;;;;;;4999462;28;20035;-66
2022/10/10 10:21:28;;;;;;;1.52;0.82;;;23.60;55.50;;;;;;4998287;28;20386;-68
2022/10/10 10:24:01;;;;;;;1.83;0.70;;;23.70;55.50;;;;;;4999373;28;20080;-68
2022/10/10 10:26:42;;;;;;;2.40;0.90;;;23.70;55.60;;;;;;4994149;28;20027;-69
2022/10/10 10:29:28;;;;;;;2.05;0.73;;;23.70;55.60;;;;;;4993168;28;20058;-68
2022/10/10 10:32:10;;;;;;;1.40;0.70;;;23.70;55.50;;;;;;4973784;28;20046;-68
2022/10/10 10:34:54;;;;;;;0.85;0.60;;;23.70;55.50;;;;;;5000107;28;20473;-66
2022/10/10 10:37:43;;;;;;;1.15;0.70;;;23.80;55.50;;;;;;4998561;28;20026;-67
2022/10/10 10:40:32;;;;;;;1.50;0.80;;;23.80;55.50;;;;;;4996490;28;20061;-67
2022/10/10 10:43:24;;;;;;;1.55;0.90;;;23.80;55.50;;;;;;5002271;28;20026;-66
2022/10/10 10:46:26;;;;;;;1.00;0.70;;;23.80;56.00;;;;;;4998676;28;20076;-69
2022/10/10 10:49:20;;;;;;;1.55;0.70;;;23.80;55.50;;;;;;4983515;28;20392;-68
2022/10/10 10:51:57;;;;;;;1.00;0.70;;;23.80;55.50;;;;;;4969299;28;20140;-67
2022/10/10 10:54:52;;;;;;;1.77;0.85;;;23.80;55.60;;;;;;4998441;28;20504;-67
2022/10/10 10:57:34;;;;;;;1.75;0.95;;;23.90;55.70;;;;;;4989893;28;20042;-66
2022/10/10 11:00:02;;;;;;;1.63;0.70;;;23.90;55.70;;;;;;4980028;28;20548;-71
2022/10/10 11:02:42;;;;;;;1.43;0.87;;;23.90;56.00;;;;;;5003510;28;20412;-68
2022/10/10 11:05:07;;;;;;;1.55;0.80;;;23.90;55.80;;;;;;4999944;28;20340;-67
2022/10/10 11:07:52;;;;;;;2.92;0.90;;;23.90;55.70;;;;;;4991022;28;20117;-66
2022/10/10 11:10:28;;;;;;;1.70;0.80;;;23.90;55.60;;;;;;4999450;28;20026;-65
2022/10/10 11:12:56;;;;;;;2.08;0.85;;;23.90;55.60;;;;;;4982458;28;20126;-67
2022/10/10 11:15:31;;;;;;;1.20;0.70;;;23.90;55.60;;;;;;4998810;28;20050;-68
2022/10/10 11:18:03;;;;;;;1.13;0.90;;;23.90;55.60;;;;;;4986535;28;20485;-65
2022/10/10 11:20:49;;;;;;;1.30;0.80;;;24.00;55.60;;;;;;4983096;28;20030;-66
2022/10/10 11:23:22;;;;;;;1.95;0.80;;;23.90;55.50;;;;;;4994118;28;20034;-68
2022/10/10 11:25:59;;;;;;;0.82;0.68;;;24.00;55.50;;;;;;5000859;28;20043;-66
2022/10/10 11:28:45;;;;;;;1.85;0.70;;;24.00;55.60;;;;;;4999899;28;20117;-68
2022/10/10 11:31:27;;;;;;;0.70;0.50;;;24.00;55.70;;;;;;4997869;28;20085;-67
2022/10/10 11:34:10;;;;;;;1.02;0.80;;;24.00;55.60;;;;;;4998779;28;20445;-68
2022/10/10 11:36:39;;;;;;;0.82;0.68;;;24.00;55.60;;;;;;5003089;28;20398;-68
2022/10/10 11:39:18;;;;;;;1.58;0.75;;;24.00;55.50;;;;;;4987426;28;20057;-68
2022/10/10 11:41:48;;;;;;;0.88;0.63;;;24.00;55.50;;;;;;4995597;28;20091;-67
2022/10/10 11:44:21;;;;;;;1.00;0.70;;;24.00;55.50;;;;;;4998284;28;20113;-68
2022/10/10 11:46:59;;;;;;;1.00;0.68;;;24.00;55.50;;;;;;4986234;28;20123;-67
2022/10/10 11:49:51;;;;;;;1.15;0.80;;;24.00;55.40;;;;;;5002599;28;20027;-67
2022/10/10 11:52:33;;;;;;;0.82;0.65;;;24.10;55.50;;;;;;4999682;28;20452;-64
2022/10/10 11:55:05;;;;;;;1.77;0.90;;;24.10;55.50;;;;;;4998443;28;20117;-67
2022/10/10 11:57:58;;;;;;;1.05;0.80;;;24.10;55.40;;;;;;4986378;28;20533;-67
2022/10/10 12:00:27;;;;;;;1.48;0.80;;;24.10;55.40;;;;;;4997851;28;20140;-69
2022/10/10 12:02:53;;;;;;;;;;;24.10;55.50;;;;;;4983754;28;20030;-67
2022/10/10 12:05:21;;;;;;;0.95;0.70;;;24.10;55.40;;;;;;4984741;28;19913;-67
2022/10/10 12:07:56;;;;;;;0.95;0.60;;;24.10;55.30;;;;;;5000206;28;20028;-70
2022/10/10 12:10:30;;;;;;;1.17;0.70;;;24.10;55.30;;;;;;4999931;28;20126;-68
2022/10/10 12:13:18;;;;;;;1.27;0.70;;;24.20;55.40;;;;;;4979652;28;20029;-68
2022/10/10 12:15:44;;;;;;;1.67;0.70;;;24.20;55.40;;;;;;5000422;28;20049;-68
2022/10/10 12:18:29;;;;;;;1.23;0.80;;;24.20;55.40;;;;;;4997435;28;20459;-67
2022/10/10 12:21:11;;;;;;;1.13;0.60;;;24.20;55.40;;;;;;4999290;28;20018;-68
2022/10/10 12:23:39;;;;;;;1.52;0.88;;;24.20;55.40;;;;;;4994200;28;20030;-69
2022/10/10 12:26:05;;;;;;;1.58;0.80;;;24.30;55.40;;;;;;4993233;28;20430;-68
2022/10/10 12:28:36;;;;;;;1.70;0.88;;;24.30;55.30;;;;;;4996870;28;20070;-67
2022/10/10 12:31:01;;;;;;;1.98;0.70;;;24.30;55.20;;;;;;4997229;28;20429;-67
2022/10/10 12:33:27;;;;;;;1.85;0.73;;;24.30;55.20;;;;;;5001254;28;20026;-66
2022/10/10 12:35:53;;;;;;;1.58;0.80;;;24.30;55.20;;;;;;4984589;28;20076;-68
2022/10/10 12:38:27;;;;;;;1.60;0.88;;;24.30;55.20;;;;;;4981498;28;20392;-68
2022/10/10 12:41:06;;;;;;;1.45;0.80;;;24.30;55.20;;;;;;4999385;28;20073;-66
2022/10/10 12:43:41;;;;;;;;;;;24.30;55.10;;;;;;5001002;28;20038;-69
2022/10/10 12:46:30;;;;;;;1.58;0.80;;;24.40;55.20;;;;;;5000026;28;19913;-67
2022/10/10 12:48:57;;;;;;;;;;;24.30;55.30;;;;;;4996309;28;20497;-66
2022/10/10 12:51:24;;;;;;;1.77;0.60;;;24.40;55.30;;;;;;4998390;28;20284;-68
2022/10/10 12:53:55;;;;;;;1.15;0.80;;;24.40;55.30;;;;;;4982869;28;20520;-65
2022/10/10 12:56:40;;;;;;;1.02;0.70;;;24.40;55.70;;;;;;5000523;28;20458;-67
2022/10/10 12:59:18;;;;;;;1.77;0.85;;;24.40;55.80;;;;;;4993521;28;20025;-68
2022/10/10 13:01:49;;;;;;;1.15;0.80;;;24.40;55.50;;;;;;4979848;28;20117;-68
2022/10/10 13:04:18;;;;;;;2.05;0.80;;;24.50;55.40;;;;;;4975597;28;20392;-66
2022/10/10 13:06:45;;;;;;;1.33;0.80;;;24.50;55.40;;;;;;4997995;28;20037;-68
2022/10/10 13:09:21;;;;;;;2.17;0.80;;;24.40;55.30;;;;;;4997475;28;20045;-65